sensor_id;sensor_type;location;lat;lon;timestamp;P1;durP1;ratioP1;P2;durP2;ratioP2
33830;SDS011;20137;48.834;8.732;2022-08-02T00:01:40;2.00;;;1.30;;
33830;SDS011;20137;48.834;8.732;2022-08-02T00:04:07;1.40;;;1.10;;
33830;SDS011;20137;48.834;8.732;2022-08-02T00:06:33;3.70;;;1.30;;
33830;SDS011;20137;48.834;8.732;2022-08-02T00:08:59;3.15;;;1.35;;
33830;SDS011;20137;48.834;8.732;2022-08-02T00:11:25;5.55;;;1.00;;
33830;SDS011;20137;48.834;8.732;2022-08-02T00:13:51;3.50;;;1.33;;
33830;SDS011;20137;48.834;8.732;2022-08-02T00:16:17;2.50;;;1.40;;
33830;SDS011;20137;48.834;8.732;2022-08-02T00:18:44;1.92;;;1.17;;
33830;SDS011;20137;48.834;8.732;2022-08-02T00:21:10;4.57;;;1.17;;
33830;SDS011;20137;48.834;8.732;2022-08-02T00:23:36;4.40;;;1.60;;
33830;SDS011;20137;48.834;8.732;2022-08-02T00:26:02;3.90;;;1.35;;
33830;SDS011;20137;48.834;8.732;2022-08-02T00:28:28;6.78;;;1.20;;
33830;SDS011;20137;48.834;8.732;2022-08-02T00:30:57;1.70;;;1.30;;
33830;SDS011;20137;48.834;8.732;2022-08-02T00:33:24;5.80;;;1.50;;
33830;SDS011;20137;48.834;8.732;2022-08-02T00:35:50;3.25;;;1.60;;
33830;SDS011;20137;48.834;8.732;2022-08-02T00:38:17;2.90;;;1.40;;
33830;SDS011;20137;48.834;8.732;2022-08-02T00:40:46;5.68;;;1.52;;
33830;SDS011;20137;48.834;8.732;2022-08-02T00:43:13;4.32;;;1.55;;
33830;SDS011;20137;48.834;8.732;2022-08-02T00:45:39;2.50;;;1.63;;
33830;SDS011;20137;48.834;8.732;2022-08-02T00:48:06;4.50;;;1.65;;
33830;SDS011;20137;48.834;8.732;2022-08-02T00:50:33;4.03;;;1.40;;
33830;SDS011;20137;48.834;8.732;2022-08-02T00:53:00;2.20;;;1.50;;
33830;SDS011;20137;48.834;8.732;2022-08-02T00:55:26;2.63;;;1.63;;
33830;SDS011;20137;48.834;8.732;2022-08-02T00:57:52;5.20;;;1.73;;
33830;SDS011;20137;48.834;8.732;2022-08-02T01:00:19;2.72;;;1.60;;
33830;SDS011;20137;48.834;8.732;2022-08-02T01:02:45;2.65;;;1.90;;
33830;SDS011;20137;48.834;8.732;2022-08-02T01:05:11;3.22;;;2.13;;
33830;SDS011;20137;48.834;8.732;2022-08-02T01:07:37;1.98;;;1.73;;
33830;SDS011;20137;48.834;8.732;2022-08-02T01:10:03;3.03;;;1.92;;
33830;SDS011;20137;48.834;8.732;2022-08-02T01:12:30;4.60;;;1.65;;
33830;SDS011;20137;48.834;8.732;2022-08-02T01:14:57;4.13;;;1.88;;
33830;SDS011;20137;48.834;8.732;2022-08-02T01:17:41;5.38;;;1.90;;
33830;SDS011;20137;48.834;8.732;2022-08-02T01:20:32;3.33;;;1.80;;
33830;SDS011;20137;48.834;8.732;2022-08-02T01:30:38;4.13;;;1.70;;
33830;SDS011;20137;48.834;8.732;2022-08-02T01:33:06;2.25;;;1.65;;
33830;SDS011;20137;48.834;8.732;2022-08-02T01:35:37;2.47;;;1.80;;
33830;SDS011;20137;48.834;8.732;2022-08-02T01:38:16;3.08;;;1.77;;
33830;SDS011;20137;48.834;8.732;2022-08-02T01:40:44;3.78;;;1.85;;
33830;SDS011;20137;48.834;8.732;2022-08-02T01:43:11;2.88;;;1.83;;
33830;SDS011;20137;48.834;8.732;2022-08-02T01:45:39;3.35;;;2.30;;
33830;SDS011;20137;48.834;8.732;2022-08-02T01:48:05;4.70;;;2.00;;
33830;SDS011;20137;48.834;8.732;2022-08-02T01:50:33;3.50;;;2.22;;
33830;SDS011;20137;48.834;8.732;2022-08-02T01:53:01;2.70;;;2.15;;
33830;SDS011;20137;48.834;8.732;2022-08-02T01:55:29;4.90;;;2.20;;
33830;SDS011;20137;48.834;8.732;2022-08-02T01:57:56;4.72;;;2.42;;
33830;SDS011;20137;48.834;8.732;2022-08-02T02:00:24;4.22;;;2.25;;
33830;SDS011;20137;48.834;8.732;2022-08-02T02:02:51;4.60;;;2.40;;
33830;SDS011;20137;48.834;8.732;2022-08-02T02:05:21;4.43;;;2.40;;
33830;SDS011;20137;48.834;8.732;2022-08-02T02:07:49;3.85;;;2.25;;
33830;SDS011;20137;48.834;8.732;2022-08-02T02:10:16;5.82;;;2.80;;
33830;SDS011;20137;48.834;8.732;2022-08-02T02:12:45;3.53;;;2.15;;
33830;SDS011;20137;48.834;8.732;2022-08-02T02:15:12;7.28;;;3.25;;
33830;SDS011;20137;48.834;8.732;2022-08-02T02:17:41;3.50;;;2.40;;
33830;SDS011;20137;48.834;8.732;2022-08-02T02:20:08;8.52;;;3.00;;
33830;SDS011;20137;48.834;8.732;2022-08-02T02:22:34;2.97;;;2.08;;
33830;SDS011;20137;48.834;8.732;2022-08-02T02:25:00;3.40;;;2.70;;
33830;SDS011;20137;48.834;8.732;2022-08-02T02:27:26;3.17;;;2.55;;
33830;SDS011;20137;48.834;8.732;2022-08-02T02:29:53;4.82;;;2.70;;
33830;SDS011;20137;48.834;8.732;2022-08-02T02:32:20;4.65;;;3.10;;
33830;SDS011;20137;48.834;8.732;2022-08-02T02:34:47;4.50;;;2.60;;
33830;SDS011;20137;48.834;8.732;2022-08-02T02:37:21;3.35;;;2.70;;
33830;SDS011;20137;48.834;8.732;2022-08-02T02:39:49;3.72;;;2.58;;
33830;SDS011;20137;48.834;8.732;2022-08-02T02:42:16;3.13;;;2.50;;
33830;SDS011;20137;48.834;8.732;2022-08-02T02:44:43;3.85;;;2.47;;
33830;SDS011;20137;48.834;8.732;2022-08-02T02:47:11;4.07;;;2.88;;
33830;SDS011;20137;48.834;8.732;2022-08-02T02:49:38;8.93;;;3.00;;
33830;SDS011;20137;48.834;8.732;2022-08-02T02:52:05;5.00;;;3.17;;
33830;SDS011;20137;48.834;8.732;2022-08-02T02:54:31;4.32;;;2.67;;
33830;SDS011;20137;48.834;8.732;2022-08-02T02:56:58;4.90;;;3.13;;
33830;SDS011;20137;48.834;8.732;2022-08-02T02:59:25;4.28;;;2.67;;
33830;SDS011;20137;48.834;8.732;2022-08-02T03:01:52;5.50;;;2.70;;
33830;SDS011;20137;48.834;8.732;2022-08-02T03:04:18;4.55;;;3.10;;
33830;SDS011;20137;48.834;8.732;2022-08-02T03:06:45;6.40;;;3.10;;
33830;SDS011;20137;48.834;8.732;2022-08-02T03:09:12;3.63;;;2.92;;
33830;SDS011;20137;48.834;8.732;2022-08-02T03:11:38;7.25;;;3.33;;
33830;SDS011;20137;48.834;8.732;2022-08-02T03:14:07;5.10;;;3.20;;
33830;SDS011;20137;48.834;8.732;2022-08-02T03:16:33;3.90;;;3.05;;
33830;SDS011;20137;48.834;8.732;2022-08-02T03:19:06;4.43;;;2.97;;
33830;SDS011;20137;48.834;8.732;2022-08-02T03:21:32;5.80;;;3.10;;
33830;SDS011;20137;48.834;8.732;2022-08-02T03:23:58;5.07;;;2.53;;
33830;SDS011;20137;48.834;8.732;2022-08-02T03:26:24;10.02;;;3.30;;
33830;SDS011;20137;48.834;8.732;2022-08-02T03:28:50;5.82;;;3.20;;
33830;SDS011;20137;48.834;8.732;2022-08-02T03:31:16;6.82;;;3.05;;
33830;SDS011;20137;48.834;8.732;2022-08-02T03:33:42;7.03;;;3.28;;
33830;SDS011;20137;48.834;8.732;2022-08-02T03:36:12;5.35;;;2.75;;
33830;SDS011;20137;48.834;8.732;2022-08-02T03:38:40;7.05;;;2.92;;
33830;SDS011;20137;48.834;8.732;2022-08-02T03:41:09;4.93;;;3.38;;
33830;SDS011;20137;48.834;8.732;2022-08-02T03:43:36;4.63;;;2.92;;
33830;SDS011;20137;48.834;8.732;2022-08-02T03:46:03;4.43;;;3.03;;
33830;SDS011;20137;48.834;8.732;2022-08-02T03:48:29;5.53;;;3.10;;
33830;SDS011;20137;48.834;8.732;2022-08-02T03:50:56;5.20;;;2.95;;
33830;SDS011;20137;48.834;8.732;2022-08-02T03:53:22;5.88;;;3.40;;
33830;SDS011;20137;48.834;8.732;2022-08-02T03:55:49;4.72;;;3.25;;
33830;SDS011;20137;48.834;8.732;2022-08-02T03:58:16;4.57;;;3.22;;
33830;SDS011;20137;48.834;8.732;2022-08-02T04:00:43;6.65;;;3.60;;
33830;SDS011;20137;48.834;8.732;2022-08-02T04:03:09;4.18;;;3.28;;
33830;SDS011;20137;48.834;8.732;2022-08-02T04:05:35;6.13;;;3.33;;
33830;SDS011;20137;48.834;8.732;2022-08-02T04:08:01;5.25;;;3.08;;
33830;SDS011;20137;48.834;8.732;2022-08-02T04:10:27;4.25;;;3.17;;
33830;SDS011;20137;48.834;8.732;2022-08-02T04:12:53;5.30;;;3.03;;
33830;SDS011;20137;48.834;8.732;2022-08-02T04:15:19;4.38;;;3.28;;
33830;SDS011;20137;48.834;8.732;2022-08-02T04:17:53;4.38;;;3.47;;
33830;SDS011;20137;48.834;8.732;2022-08-02T04:20:21;5.68;;;3.05;;
33830;SDS011;20137;48.834;8.732;2022-08-02T04:23:03;5.38;;;3.22;;
33830;SDS011;20137;48.834;8.732;2022-08-02T04:25:31;6.50;;;2.85;;
33830;SDS011;20137;48.834;8.732;2022-08-02T04:27:59;7.50;;;3.10;;
33830;SDS011;20137;48.834;8.732;2022-08-02T04:30:25;5.13;;;2.95;;
33830;SDS011;20137;48.834;8.732;2022-08-02T04:32:51;5.20;;;3.33;;
33830;SDS011;20137;48.834;8.732;2022-08-02T04:35:18;5.22;;;3.00;;
33830;SDS011;20137;48.834;8.732;2022-08-02T04:37:44;6.70;;;2.80;;
33830;SDS011;20137;48.834;8.732;2022-08-02T04:40:11;5.72;;;2.95;;
33830;SDS011;20137;48.834;8.732;2022-08-02T04:42:37;4.03;;;3.00;;
33830;SDS011;20137;48.834;8.732;2022-08-02T04:45:04;3.00;;;2.35;;
33830;SDS011;20137;48.834;8.732;2022-08-02T04:47:31;3.20;;;2.22;;
33830;SDS011;20137;48.834;8.732;2022-08-02T04:49:57;3.22;;;2.45;;
33830;SDS011;20137;48.834;8.732;2022-08-02T04:52:23;3.15;;;2.70;;
33830;SDS011;20137;48.834;8.732;2022-08-02T04:54:49;4.47;;;2.88;;
33830;SDS011;20137;48.834;8.732;2022-08-02T04:57:17;4.88;;;2.50;;
33830;SDS011;20137;48.834;8.732;2022-08-02T05:00:02;4.38;;;2.47;;
33830;SDS011;20137;48.834;8.732;2022-08-02T05:02:28;3.75;;;2.47;;
33830;SDS011;20137;48.834;8.732;2022-08-02T05:04:54;4.30;;;2.33;;
33830;SDS011;20137;48.834;8.732;2022-08-02T05:07:20;5.10;;;2.40;;
33830;SDS011;20137;48.834;8.732;2022-08-02T05:09:46;2.63;;;2.22;;
33830;SDS011;20137;48.834;8.732;2022-08-02T05:12:12;2.42;;;1.80;;
33830;SDS011;20137;48.834;8.732;2022-08-02T05:14:38;4.88;;;2.35;;
33830;SDS011;20137;48.834;8.732;2022-08-02T05:17:04;3.50;;;1.90;;
33830;SDS011;20137;48.834;8.732;2022-08-02T05:19:30;2.55;;;1.95;;
33830;SDS011;20137;48.834;8.732;2022-08-02T05:21:57;5.78;;;2.00;;
33830;SDS011;20137;48.834;8.732;2022-08-02T05:24:23;4.03;;;2.10;;
33830;SDS011;20137;48.834;8.732;2022-08-02T05:26:49;2.40;;;1.85;;
33830;SDS011;20137;48.834;8.732;2022-08-02T05:29:15;4.50;;;2.30;;
33830;SDS011;20137;48.834;8.732;2022-08-02T05:31:41;3.78;;;2.20;;
33830;SDS011;20137;48.834;8.732;2022-08-02T05:34:07;4.75;;;2.47;;
33830;SDS011;20137;48.834;8.732;2022-08-02T05:36:33;2.97;;;1.88;;
33830;SDS011;20137;48.834;8.732;2022-08-02T05:38:59;4.95;;;2.22;;
33830;SDS011;20137;48.834;8.732;2022-08-02T05:41:25;4.65;;;1.80;;
33830;SDS011;20137;48.834;8.732;2022-08-02T05:43:51;4.72;;;1.90;;
33830;SDS011;20137;48.834;8.732;2022-08-02T05:46:17;3.40;;;1.83;;
33830;SDS011;20137;48.834;8.732;2022-08-02T05:48:43;3.40;;;1.60;;
33830;SDS011;20137;48.834;8.732;2022-08-02T05:51:16;5.25;;;2.17;;
33830;SDS011;20137;48.834;8.732;2022-08-02T05:53:55;4.63;;;2.00;;
33830;SDS011;20137;48.834;8.732;2022-08-02T05:56:28;6.38;;;2.30;;
33830;SDS011;20137;48.834;8.732;2022-08-02T06:01:33;3.30;;;2.03;;
33830;SDS011;20137;48.834;8.732;2022-08-02T06:04:02;4.50;;;2.13;;
33830;SDS011;20137;48.834;8.732;2022-08-02T06:06:29;3.38;;;2.35;;
33830;SDS011;20137;48.834;8.732;2022-08-02T06:08:57;5.15;;;2.30;;
33830;SDS011;20137;48.834;8.732;2022-08-02T06:11:25;3.10;;;2.15;;
33830;SDS011;20137;48.834;8.732;2022-08-02T06:13:57;3.53;;;2.25;;
33830;SDS011;20137;48.834;8.732;2022-08-02T06:16:25;5.80;;;2.50;;
33830;SDS011;20137;48.834;8.732;2022-08-02T06:18:51;6.30;;;1.98;;
33830;SDS011;20137;48.834;8.732;2022-08-02T06:21:18;6.40;;;3.08;;
33830;SDS011;20137;48.834;8.732;2022-08-02T06:23:46;4.75;;;2.40;;
33830;SDS011;20137;48.834;8.732;2022-08-02T06:26:12;5.00;;;2.70;;
33830;SDS011;20137;48.834;8.732;2022-08-02T06:28:40;3.65;;;2.40;;
33830;SDS011;20137;48.834;8.732;2022-08-02T06:31:06;6.95;;;2.60;;
33830;SDS011;20137;48.834;8.732;2022-08-02T06:33:32;5.35;;;2.17;;
33830;SDS011;20137;48.834;8.732;2022-08-02T06:36:03;5.07;;;2.33;;
33830;SDS011;20137;48.834;8.732;2022-08-02T06:38:32;3.35;;;2.42;;
33830;SDS011;20137;48.834;8.732;2022-08-02T06:41:08;3.72;;;2.75;;
33830;SDS011;20137;48.834;8.732;2022-08-02T06:43:46;5.65;;;2.83;;
33830;SDS011;20137;48.834;8.732;2022-08-02T06:46:13;4.50;;;2.38;;
33830;SDS011;20137;48.834;8.732;2022-08-02T06:48:40;3.97;;;2.22;;
33830;SDS011;20137;48.834;8.732;2022-08-02T06:51:06;4.38;;;2.40;;
33830;SDS011;20137;48.834;8.732;2022-08-02T06:53:32;3.40;;;2.67;;
33830;SDS011;20137;48.834;8.732;2022-08-02T06:55:58;3.83;;;2.88;;
33830;SDS011;20137;48.834;8.732;2022-08-02T06:58:24;7.55;;;3.17;;
33830;SDS011;20137;48.834;8.732;2022-08-02T07:00:51;3.10;;;2.40;;
33830;SDS011;20137;48.834;8.732;2022-08-02T07:03:17;8.65;;;3.60;;
33830;SDS011;20137;48.834;8.732;2022-08-02T07:05:43;5.88;;;2.95;;
33830;SDS011;20137;48.834;8.732;2022-08-02T07:08:15;7.38;;;4.43;;
33830;SDS011;20137;48.834;8.732;2022-08-02T07:10:42;6.80;;;4.90;;
33830;SDS011;20137;48.834;8.732;2022-08-02T07:13:08;8.80;;;4.97;;
33830;SDS011;20137;48.834;8.732;2022-08-02T07:15:34;5.57;;;3.47;;
33830;SDS011;20137;48.834;8.732;2022-08-02T07:18:01;5.65;;;4.28;;
33830;SDS011;20137;48.834;8.732;2022-08-02T07:20:27;7.13;;;4.00;;
33830;SDS011;20137;48.834;8.732;2022-08-02T07:22:53;9.45;;;7.15;;
33830;SDS011;20137;48.834;8.732;2022-08-02T07:25:19;8.38;;;6.30;;
33830;SDS011;20137;48.834;8.732;2022-08-02T07:27:46;10.07;;;7.00;;
33830;SDS011;20137;48.834;8.732;2022-08-02T07:30:12;10.80;;;5.68;;
33830;SDS011;20137;48.834;8.732;2022-08-02T07:32:38;8.70;;;6.13;;
33830;SDS011;20137;48.834;8.732;2022-08-02T07:35:04;7.10;;;4.97;;
33830;SDS011;20137;48.834;8.732;2022-08-02T07:37:31;8.43;;;5.38;;
33830;SDS011;20137;48.834;8.732;2022-08-02T07:39:58;8.70;;;5.82;;
33830;SDS011;20137;48.834;8.732;2022-08-02T07:42:24;10.50;;;6.70;;
33830;SDS011;20137;48.834;8.732;2022-08-02T07:44:50;12.52;;;7.35;;
33830;SDS011;20137;48.834;8.732;2022-08-02T07:47:16;12.73;;;6.25;;
33830;SDS011;20137;48.834;8.732;2022-08-02T07:49:43;11.27;;;5.60;;
33830;SDS011;20137;48.834;8.732;2022-08-02T07:52:09;10.35;;;5.30;;
33830;SDS011;20137;48.834;8.732;2022-08-02T07:54:35;8.75;;;5.45;;
33830;SDS011;20137;48.834;8.732;2022-08-02T07:57:01;9.95;;;5.28;;
33830;SDS011;20137;48.834;8.732;2022-08-02T07:59:27;8.38;;;4.95;;
33830;SDS011;20137;48.834;8.732;2022-08-02T08:01:53;7.57;;;4.70;;
33830;SDS011;20137;48.834;8.732;2022-08-02T08:04:19;4.72;;;3.85;;
33830;SDS011;20137;48.834;8.732;2022-08-02T08:06:45;9.77;;;4.05;;
33830;SDS011;20137;48.834;8.732;2022-08-02T08:09:16;11.38;;;4.85;;
33830;SDS011;20137;48.834;8.732;2022-08-02T08:11:42;7.93;;;4.68;;
33830;SDS011;20137;48.834;8.732;2022-08-02T08:14:08;8.50;;;4.20;;
33830;SDS011;20137;48.834;8.732;2022-08-02T08:16:34;7.22;;;4.38;;
33830;SDS011;20137;48.834;8.732;2022-08-02T08:19:00;5.65;;;4.60;;
33830;SDS011;20137;48.834;8.732;2022-08-02T08:21:26;5.82;;;4.25;;
33830;SDS011;20137;48.834;8.732;2022-08-02T08:23:53;10.63;;;4.32;;
33830;SDS011;20137;48.834;8.732;2022-08-02T08:26:20;8.25;;;4.93;;
33830;SDS011;20137;48.834;8.732;2022-08-02T08:28:46;11.77;;;4.05;;
33830;SDS011;20137;48.834;8.732;2022-08-02T08:31:12;9.80;;;4.35;;
33830;SDS011;20137;48.834;8.732;2022-08-02T08:33:38;10.32;;;4.50;;
33830;SDS011;20137;48.834;8.732;2022-08-02T08:36:04;5.53;;;4.22;;
33830;SDS011;20137;48.834;8.732;2022-08-02T08:38:30;4.78;;;3.83;;
33830;SDS011;20137;48.834;8.732;2022-08-02T08:40:56;7.40;;;4.45;;
33830;SDS011;20137;48.834;8.732;2022-08-02T08:43:22;5.55;;;4.15;;
33830;SDS011;20137;48.834;8.732;2022-08-02T08:45:48;5.22;;;4.47;;
33830;SDS011;20137;48.834;8.732;2022-08-02T08:48:15;7.88;;;4.45;;
33830;SDS011;20137;48.834;8.732;2022-08-02T08:51:01;5.90;;;3.88;;
33830;SDS011;20137;48.834;8.732;2022-08-02T08:53:29;9.48;;;4.43;;
33830;SDS011;20137;48.834;8.732;2022-08-02T08:55:56;5.80;;;4.70;;
33830;SDS011;20137;48.834;8.732;2022-08-02T08:58:23;7.05;;;3.90;;
33830;SDS011;20137;48.834;8.732;2022-08-02T09:00:49;5.45;;;4.13;;
33830;SDS011;20137;48.834;8.732;2022-08-02T09:03:16;5.97;;;4.65;;
33830;SDS011;20137;48.834;8.732;2022-08-02T09:05:42;7.10;;;4.43;;
33830;SDS011;20137;48.834;8.732;2022-08-02T09:08:10;5.50;;;4.10;;
33830;SDS011;20137;48.834;8.732;2022-08-02T09:10:43;5.05;;;4.55;;
33830;SDS011;20137;48.834;8.732;2022-08-02T09:15:36;8.77;;;4.32;;
33830;SDS011;20137;48.834;8.732;2022-08-02T09:18:03;8.45;;;4.30;;
33830;SDS011;20137;48.834;8.732;2022-08-02T09:20:30;4.10;;;3.70;;
33830;SDS011;20137;48.834;8.732;2022-08-02T09:23:06;6.38;;;3.78;;
33830;SDS011;20137;48.834;8.732;2022-08-02T09:25:33;5.15;;;4.25;;
33830;SDS011;20137;48.834;8.732;2022-08-02T09:27:59;5.38;;;4.13;;
33830;SDS011;20137;48.834;8.732;2022-08-02T09:30:25;5.05;;;4.00;;
33830;SDS011;20137;48.834;8.732;2022-08-02T09:32:52;4.30;;;3.90;;
33830;SDS011;20137;48.834;8.732;2022-08-02T09:35:31;4.78;;;4.22;;
33830;SDS011;20137;48.834;8.732;2022-08-02T09:38:12;5.20;;;3.85;;
33830;SDS011;20137;48.834;8.732;2022-08-02T09:40:39;5.13;;;4.28;;
33830;SDS011;20137;48.834;8.732;2022-08-02T09:43:06;6.35;;;4.13;;
33830;SDS011;20137;48.834;8.732;2022-08-02T09:45:32;5.60;;;4.28;;
33830;SDS011;20137;48.834;8.732;2022-08-02T09:48:08;4.20;;;3.78;;
33830;SDS011;20137;48.834;8.732;2022-08-02T09:55:27;5.78;;;3.45;;
33830;SDS011;20137;48.834;8.732;2022-08-02T09:57:53;6.28;;;3.90;;
33830;SDS011;20137;48.834;8.732;2022-08-02T10:00:19;5.07;;;3.40;;
33830;SDS011;20137;48.834;8.732;2022-08-02T10:03:07;3.85;;;3.45;;
33830;SDS011;20137;48.834;8.732;2022-08-02T10:08:32;4.78;;;3.10;;
33830;SDS011;20137;48.834;8.732;2022-08-02T10:10:58;4.55;;;2.83;;
33830;SDS011;20137;48.834;8.732;2022-08-02T10:13:28;3.60;;;3.28;;
33830;SDS011;20137;48.834;8.732;2022-08-02T10:15:55;5.80;;;3.58;;
33830;SDS011;20137;48.834;8.732;2022-08-02T10:18:21;7.13;;;3.58;;
33830;SDS011;20137;48.834;8.732;2022-08-02T10:20:47;8.15;;;3.60;;
33830;SDS011;20137;48.834;8.732;2022-08-02T10:23:15;4.32;;;3.92;;
33830;SDS011;20137;48.834;8.732;2022-08-02T10:25:41;7.43;;;3.80;;
33830;SDS011;20137;48.834;8.732;2022-08-02T10:28:08;3.72;;;3.42;;
33830;SDS011;20137;48.834;8.732;2022-08-02T10:30:35;4.00;;;3.60;;
33830;SDS011;20137;48.834;8.732;2022-08-02T10:33:02;3.83;;;3.33;;
33830;SDS011;20137;48.834;8.732;2022-08-02T10:35:29;4.18;;;3.30;;
33830;SDS011;20137;48.834;8.732;2022-08-02T10:38:00;4.63;;;2.72;;
33830;SDS011;20137;48.834;8.732;2022-08-02T10:40:43;3.72;;;3.20;;
33830;SDS011;20137;48.834;8.732;2022-08-02T10:43:09;3.63;;;3.33;;
33830;SDS011;20137;48.834;8.732;2022-08-02T10:45:36;7.88;;;3.72;;
33830;SDS011;20137;48.834;8.732;2022-08-02T10:48:09;4.40;;;3.40;;
33830;SDS011;20137;48.834;8.732;2022-08-02T10:55:45;3.63;;;2.97;;
33830;SDS011;20137;48.834;8.732;2022-08-02T10:58:21;3.83;;;3.42;;
33830;SDS011;20137;48.834;8.732;2022-08-02T11:00:47;4.70;;;3.10;;
33830;SDS011;20137;48.834;8.732;2022-08-02T11:06:05;3.72;;;3.22;;
33830;SDS011;20137;48.834;8.732;2022-08-02T11:08:31;4.80;;;3.20;;
33830;SDS011;20137;48.834;8.732;2022-08-02T11:10:58;4.40;;;3.53;;
33830;SDS011;20137;48.834;8.732;2022-08-02T11:13:25;5.28;;;3.40;;
33830;SDS011;20137;48.834;8.732;2022-08-02T11:15:59;5.28;;;3.60;;
33830;SDS011;20137;48.834;8.732;2022-08-02T11:21:31;5.82;;;3.28;;
33830;SDS011;20137;48.834;8.732;2022-08-02T11:24:22;7.72;;;3.55;;
33830;SDS011;20137;48.834;8.732;2022-08-02T11:26:44;4.57;;;3.38;;
33830;SDS011;20137;48.834;8.732;2022-08-02T11:29:10;3.92;;;3.00;;
33830;SDS011;20137;48.834;8.732;2022-08-02T11:31:37;5.18;;;3.03;;
33830;SDS011;20137;48.834;8.732;2022-08-02T11:34:04;3.40;;;2.92;;
33830;SDS011;20137;48.834;8.732;2022-08-02T11:36:30;3.78;;;2.92;;
33830;SDS011;20137;48.834;8.732;2022-08-02T11:39:09;3.40;;;2.90;;
33830;SDS011;20137;48.834;8.732;2022-08-02T11:41:35;4.47;;;2.55;;
33830;SDS011;20137;48.834;8.732;2022-08-02T11:44:01;4.22;;;3.30;;
33830;SDS011;20137;48.834;8.732;2022-08-02T11:46:27;4.72;;;2.97;;
33830;SDS011;20137;48.834;8.732;2022-08-02T11:48:53;3.00;;;2.80;;
33830;SDS011;20137;48.834;8.732;2022-08-02T11:51:19;3.38;;;3.03;;
33830;SDS011;20137;48.834;8.732;2022-08-02T11:53:47;3.33;;;2.67;;
33830;SDS011;20137;48.834;8.732;2022-08-02T11:56:14;4.93;;;3.47;;
33830;SDS011;20137;48.834;8.732;2022-08-02T11:58:40;3.72;;;2.97;;
33830;SDS011;20137;48.834;8.732;2022-08-02T12:01:06;4.68;;;2.75;;
33830;SDS011;20137;48.834;8.732;2022-08-02T12:03:39;4.05;;;2.65;;
33830;SDS011;20137;48.834;8.732;2022-08-02T12:06:05;3.50;;;3.08;;
33830;SDS011;20137;48.834;8.732;2022-08-02T12:08:32;5.75;;;3.10;;
33830;SDS011;20137;48.834;8.732;2022-08-02T12:11:01;4.93;;;3.03;;
33830;SDS011;20137;48.834;8.732;2022-08-02T12:13:39;4.40;;;2.88;;
33830;SDS011;20137;48.834;8.732;2022-08-02T12:16:09;4.00;;;3.13;;
33830;SDS011;20137;48.834;8.732;2022-08-02T12:18:55;4.65;;;2.92;;
33830;SDS011;20137;48.834;8.732;2022-08-02T12:21:39;4.57;;;2.70;;
33830;SDS011;20137;48.834;8.732;2022-08-02T12:24:05;2.90;;;2.70;;
33830;SDS011;20137;48.834;8.732;2022-08-02T12:26:43;5.65;;;2.88;;
33830;SDS011;20137;48.834;8.732;2022-08-02T12:29:10;4.25;;;2.80;;
33830;SDS011;20137;48.834;8.732;2022-08-02T12:31:43;3.25;;;2.83;;
33830;SDS011;20137;48.834;8.732;2022-08-02T12:34:13;7.13;;;3.22;;
33830;SDS011;20137;48.834;8.732;2022-08-02T12:36:40;6.05;;;3.03;;
33830;SDS011;20137;48.834;8.732;2022-08-02T12:39:10;3.88;;;2.58;;
33830;SDS011;20137;48.834;8.732;2022-08-02T12:41:37;3.10;;;2.80;;
33830;SDS011;20137;48.834;8.732;2022-08-02T12:44:03;5.25;;;3.42;;
33830;SDS011;20137;48.834;8.732;2022-08-02T12:46:29;5.10;;;2.85;;
33830;SDS011;20137;48.834;8.732;2022-08-02T12:48:56;2.92;;;2.30;;
33830;SDS011;20137;48.834;8.732;2022-08-02T12:51:30;4.30;;;2.70;;
33830;SDS011;20137;48.834;8.732;2022-08-02T12:54:12;4.07;;;2.60;;
33830;SDS011;20137;48.834;8.732;2022-08-02T12:56:38;3.53;;;2.55;;
33830;SDS011;20137;48.834;8.732;2022-08-02T12:59:04;3.15;;;2.85;;
33830;SDS011;20137;48.834;8.732;2022-08-02T13:01:31;3.33;;;2.80;;
33830;SDS011;20137;48.834;8.732;2022-08-02T13:03:57;4.25;;;2.58;;
33830;SDS011;20137;48.834;8.732;2022-08-02T13:06:24;3.10;;;2.67;;
33830;SDS011;20137;48.834;8.732;2022-08-02T13:08:50;3.83;;;2.75;;
33830;SDS011;20137;48.834;8.732;2022-08-02T13:11:18;3.80;;;2.70;;
33830;SDS011;20137;48.834;8.732;2022-08-02T13:13:44;4.53;;;2.67;;
33830;SDS011;20137;48.834;8.732;2022-08-02T13:16:10;4.40;;;2.70;;
33830;SDS011;20137;48.834;8.732;2022-08-02T13:18:37;4.38;;;2.75;;
33830;SDS011;20137;48.834;8.732;2022-08-02T13:21:03;5.65;;;2.78;;
33830;SDS011;20137;48.834;8.732;2022-08-02T13:23:30;3.17;;;2.88;;
33830;SDS011;20137;48.834;8.732;2022-08-02T13:25:56;4.78;;;2.55;;
33830;SDS011;20137;48.834;8.732;2022-08-02T13:28:22;4.95;;;2.78;;
33830;SDS011;20137;48.834;8.732;2022-08-02T13:30:48;2.90;;;2.60;;
33830;SDS011;20137;48.834;8.732;2022-08-02T13:33:15;4.80;;;2.75;;
33830;SDS011;20137;48.834;8.732;2022-08-02T13:35:41;4.45;;;2.80;;
33830;SDS011;20137;48.834;8.732;2022-08-02T13:38:07;3.30;;;2.45;;
33830;SDS011;20137;48.834;8.732;2022-08-02T13:40:33;5.57;;;3.30;;
33830;SDS011;20137;48.834;8.732;2022-08-02T13:43:19;4.18;;;2.80;;
33830;SDS011;20137;48.834;8.732;2022-08-02T13:45:45;3.13;;;2.83;;
33830;SDS011;20137;48.834;8.732;2022-08-02T13:48:12;5.30;;;2.58;;
33830;SDS011;20137;48.834;8.732;2022-08-02T13:50:38;2.90;;;2.70;;
33830;SDS011;20137;48.834;8.732;2022-08-02T13:53:04;3.60;;;3.08;;
33830;SDS011;20137;48.834;8.732;2022-08-02T13:55:30;4.32;;;2.80;;
33830;SDS011;20137;48.834;8.732;2022-08-02T13:57:56;5.43;;;2.55;;
33830;SDS011;20137;48.834;8.732;2022-08-02T14:00:22;4.03;;;2.47;;
33830;SDS011;20137;48.834;8.732;2022-08-02T14:02:48;3.35;;;2.72;;
33830;SDS011;20137;48.834;8.732;2022-08-02T14:05:14;6.35;;;2.95;;
33830;SDS011;20137;48.834;8.732;2022-08-02T14:07:40;3.13;;;2.50;;
33830;SDS011;20137;48.834;8.732;2022-08-02T14:10:07;3.78;;;2.42;;
33830;SDS011;20137;48.834;8.732;2022-08-02T14:12:33;6.57;;;2.80;;
33830;SDS011;20137;48.834;8.732;2022-08-02T14:14:59;3.15;;;2.85;;
33830;SDS011;20137;48.834;8.732;2022-08-02T14:17:25;4.82;;;2.63;;
33830;SDS011;20137;48.834;8.732;2022-08-02T14:19:52;6.18;;;3.22;;
33830;SDS011;20137;48.834;8.732;2022-08-02T14:22:18;4.97;;;2.83;;
33830;SDS011;20137;48.834;8.732;2022-08-02T14:24:44;4.28;;;3.13;;
33830;SDS011;20137;48.834;8.732;2022-08-02T14:27:10;3.33;;;2.78;;
33830;SDS011;20137;48.834;8.732;2022-08-02T14:29:36;3.80;;;3.17;;
33830;SDS011;20137;48.834;8.732;2022-08-02T14:32:02;5.45;;;3.05;;
33830;SDS011;20137;48.834;8.732;2022-08-02T14:34:28;3.22;;;2.90;;
33830;SDS011;20137;48.834;8.732;2022-08-02T14:36:54;5.25;;;3.00;;
33830;SDS011;20137;48.834;8.732;2022-08-02T14:39:20;3.08;;;2.45;;
33830;SDS011;20137;48.834;8.732;2022-08-02T14:41:46;3.08;;;2.50;;
33830;SDS011;20137;48.834;8.732;2022-08-02T14:44:12;3.67;;;2.90;;
33830;SDS011;20137;48.834;8.732;2022-08-02T14:46:39;3.15;;;2.85;;
33830;SDS011;20137;48.834;8.732;2022-08-02T14:49:06;3.22;;;2.72;;
33830;SDS011;20137;48.834;8.732;2022-08-02T14:51:33;6.75;;;3.15;;
33830;SDS011;20137;48.834;8.732;2022-08-02T14:53:59;7.30;;;3.15;;
33830;SDS011;20137;48.834;8.732;2022-08-02T14:56:26;6.65;;;3.10;;
33830;SDS011;20137;48.834;8.732;2022-08-02T14:58:52;6.75;;;2.70;;
33830;SDS011;20137;48.834;8.732;2022-08-02T15:01:18;5.25;;;3.10;;
33830;SDS011;20137;48.834;8.732;2022-08-02T15:03:45;5.40;;;2.70;;
33830;SDS011;20137;48.834;8.732;2022-08-02T15:06:11;3.85;;;2.67;;
33830;SDS011;20137;48.834;8.732;2022-08-02T15:08:37;4.57;;;3.10;;
33830;SDS011;20137;48.834;8.732;2022-08-02T15:11:03;3.10;;;2.78;;
33830;SDS011;20137;48.834;8.732;2022-08-02T15:13:29;3.92;;;3.00;;
33830;SDS011;20137;48.834;8.732;2022-08-02T15:15:55;2.78;;;2.55;;
33830;SDS011;20137;48.834;8.732;2022-08-02T15:18:21;3.33;;;3.00;;
33830;SDS011;20137;48.834;8.732;2022-08-02T15:20:47;5.40;;;2.80;;
33830;SDS011;20137;48.834;8.732;2022-08-02T15:23:14;3.38;;;2.83;;